sensor_id;sensor_type;location;lat;lon;timestamp;temperature;humidity
2260;DHT22;333;48.800;9.530;2024-01-10T00:00:23;-5.70;99.60
2260;DHT22;333;48.800;9.530;2024-01-10T00:02:50;-5.70;99.60
2260;DHT22;333;48.800;9.530;2024-01-10T00:05:18;-5.70;99.60
2260;DHT22;333;48.800;9.530;2024-01-10T00:07:45;-5.60;99.60
2260;DHT22;333;48.800;9.530;2024-01-10T00:10:13;-5.60;99.60
2260;DHT22;333;48.800;9.530;2024-01-10T00:12:40;-5.60;99.60
2260;DHT22;333;48.800;9.530;2024-01-10T00:15:10;-5.60;99.60
2260;DHT22;333;48.800;9.530;2024-01-10T00:17:37;-5.50;99.60
2260;DHT22;333;48.800;9.530;2024-01-10T00:20:07;-5.40;99.60
2260;DHT22;333;48.800;9.530;2024-01-10T00:22:34;-5.40;99.60
2260;DHT22;333;48.800;9.530;2024-01-10T00:25:01;-5.20;99.60
2260;DHT22;333;48.800;9.530;2024-01-10T00:27:30;-5.00;99.60
2260;DHT22;333;48.800;9.530;2024-01-10T00:29:57;-4.80;99.60
2260;DHT22;333;48.800;9.530;2024-01-10T00:32:24;-4.80;99.60
2260;DHT22;333;48.800;9.530;2024-01-10T00:34:51;-4.70;99.60
2260;DHT22;333;48.800;9.530;2024-01-10T00:37:18;-4.90;99.60
2260;DHT22;333;48.800;9.530;2024-01-10T00:39:45;-5.00;99.60
2260;DHT22;333;48.800;9.530;2024-01-10T00:42:13;-5.10;99.60
2260;DHT22;333;48.800;9.530;2024-01-10T00:44:42;-5.20;99.60
2260;DHT22;333;48.800;9.530;2024-01-10T00:47:10;-5.20;99.60
2260;DHT22;333;48.800;9.530;2024-01-10T00:49:38;-5.20;99.60
2260;DHT22;333;48.800;9.530;2024-01-10T00:52:05;-5.30;99.60
2260;DHT22;333;48.800;9.530;2024-01-10T00:54:32;-5.30;99.60
2260;DHT22;333;48.800;9.530;2024-01-10T00:57:00;-5.00;99.60
2260;DHT22;333;48.800;9.530;2024-01-10T00:59:27;-5.00;99.60
2260;DHT22;333;48.800;9.530;2024-01-10T01:01:55;-4.80;99.60
2260;DHT22;333;48.800;9.530;2024-01-10T01:04:23;-4.60;99.60
2260;DHT22;333;48.800;9.530;2024-01-10T01:06:50;-4.80;99.60
2260;DHT22;333;48.800;9.530;2024-01-10T01:09:18;-5.00;99.60
2260;DHT22;333;48.800;9.530;2024-01-10T01:11:45;-5.10;99.60
2260;DHT22;333;48.800;9.530;2024-01-10T01:14:12;-5.10;99.60
2260;DHT22;333;48.800;9.530;2024-01-10T01:16:40;-4.90;99.60
2260;DHT22;333;48.800;9.530;2024-01-10T01:19:08;-5.00;99.60
2260;DHT22;333;48.800;9.530;2024-01-10T01:21:35;-5.00;99.60
2260;DHT22;333;48.800;9.530;2024-01-10T01:24:03;-5.10;99.60
2260;DHT22;333;48.800;9.530;2024-01-10T01:26:30;-5.00;99.60
2260;DHT22;333;48.800;9.530;2024-01-10T01:28:57;-5.00;99.60
2260;DHT22;333;48.800;9.530;2024-01-10T01:31:24;-5.00;99.60
2260;DHT22;333;48.800;9.530;2024-01-10T01:33:51;-5.10;99.60
2260;DHT22;333;48.800;9.530;2024-01-10T01:36:19;-5.10;99.60
2260;DHT22;333;48.800;9.530;2024-01-10T01:38:46;-5.10;99.60
2260;DHT22;333;48.800;9.530;2024-01-10T01:41:13;-5.10;99.60
2260;DHT22;333;48.800;9.530;2024-01-10T01:43:41;-5.10;99.60
2260;DHT22;333;48.800;9.530;2024-01-10T01:46:08;-5.10;99.60
2260;DHT22;333;48.800;9.530;2024-01-10T01:48:35;-5.10;99.60
2260;DHT22;333;48.800;9.530;2024-01-10T01:51:06;-5.10;99.60
2260;DHT22;333;48.800;9.530;2024-01-10T01:53:35;-5.20;99.60
2260;DHT22;333;48.800;9.530;2024-01-10T01:56:06;-5.20;99.60
2260;DHT22;333;48.800;9.530;2024-01-10T01:58:33;-5.20;99.60
2260;DHT22;333;48.800;9.530;2024-01-10T02:01:02;-5.20;99.60
2260;DHT22;333;48.800;9.530;2024-01-10T02:03:30;-5.10;99.60
2260;DHT22;333;48.800;9.530;2024-01-10T02:05:58;-5.20;99.60
2260;DHT22;333;48.800;9.530;2024-01-10T02:08:25;-5.20;99.60
2260;DHT22;333;48.800;9.530;2024-01-10T02:10:54;-5.10;99.60
2260;DHT22;333;48.800;9.530;2024-01-10T02:13:21;-5.10;99.60
2260;DHT22;333;48.800;9.530;2024-01-10T02:15:48;-5.10;99.60
2260;DHT22;333;48.800;9.530;2024-01-10T02:18:15;-5.00;99.60
2260;DHT22;333;48.800;9.530;2024-01-10T02:20:43;-5.00;99.60
2260;DHT22;333;48.800;9.530;2024-01-10T02:23:11;-5.00;99.60
2260;DHT22;333;48.800;9.530;2024-01-10T02:25:40;-4.90;99.60
2260;DHT22;333;48.800;9.530;2024-01-10T02:28:07;-4.90;99.60
2260;DHT22;333;48.800;9.530;2024-01-10T02:30:35;-4.90;99.60
2260;DHT22;333;48.800;9.530;2024-01-10T02:33:04;-4.90;99.60
2260;DHT22;333;48.800;9.530;2024-01-10T02:35:31;-4.90;99.60
2260;DHT22;333;48.800;9.530;2024-01-10T02:37:59;-5.00;99.60
2260;DHT22;333;48.800;9.530;2024-01-10T02:40:26;-5.00;99.60
2260;DHT22;333;48.800;9.530;2024-01-10T02:43:06;-5.00;99.60
2260;DHT22;333;48.800;9.530;2024-01-10T02:45:33;-5.00;99.60
2260;DHT22;333;48.800;9.530;2024-01-10T02:48:01;-5.00;99.60
2260;DHT22;333;48.800;9.530;2024-01-10T02:50:28;-5.10;99.60
2260;DHT22;333;48.800;9.530;2024-01-10T02:52:55;-5.20;99.60
2260;DHT22;333;48.800;9.530;2024-01-10T02:55:22;-5.20;99.60
2260;DHT22;333;48.800;9.530;2024-01-10T02:57:49;-5.10;99.60
2260;DHT22;333;48.800;9.530;2024-01-10T03:00:18;-5.30;99.60
2260;DHT22;333;48.800;9.530;2024-01-10T03:02:45;-5.30;99.60
2260;DHT22;333;48.800;9.530;2024-01-10T03:05:12;-5.40;99.60
2260;DHT22;333;48.800;9.530;2024-01-10T03:07:40;-5.20;99.60
2260;DHT22;333;48.800;9.530;2024-01-10T03:10:08;-5.30;99.60
2260;DHT22;333;48.800;9.530;2024-01-10T03:12:35;-5.40;99.60
2260;DHT22;333;48.800;9.530;2024-01-10T03:15:06;-5.40;99.60
2260;DHT22;333;48.800;9.530;2024-01-10T03:17:35;-5.10;99.60
2260;DHT22;333;48.800;9.530;2024-01-10T03:20:02;-5.10;99.60
2260;DHT22;333;48.800;9.530;2024-01-10T03:22:30;-5.20;99.60
2260;DHT22;333;48.800;9.530;2024-01-10T03:24:58;-5.20;99.60
2260;DHT22;333;48.800;9.530;2024-01-10T03:27:25;-5.20;99.60
2260;DHT22;333;48.800;9.530;2024-01-10T03:29:52;-5.20;99.60
2260;DHT22;333;48.800;9.530;2024-01-10T03:32:19;-5.10;99.60
2260;DHT22;333;48.800;9.530;2024-01-10T03:34:48;-5.10;99.60
2260;DHT22;333;48.800;9.530;2024-01-10T03:37:17;-5.10;99.60
2260;DHT22;333;48.800;9.530;2024-01-10T03:39:44;-5.00;99.60
2260;DHT22;333;48.800;9.530;2024-01-10T03:42:11;-4.90;99.60
2260;DHT22;333;48.800;9.530;2024-01-10T03:44:38;-4.80;99.60
2260;DHT22;333;48.800;9.530;2024-01-10T03:47:05;-4.80;99.60
2260;DHT22;333;48.800;9.530;2024-01-10T03:49:32;-4.70;99.60
2260;DHT22;333;48.800;9.530;2024-01-10T03:52:03;-4.70;99.60
2260;DHT22;333;48.800;9.530;2024-01-10T03:54:33;-4.70;99.60
2260;DHT22;333;48.800;9.530;2024-01-10T03:57:00;-4.60;99.60
2260;DHT22;333;48.800;9.530;2024-01-10T03:59:27;-4.50;99.60
2260;DHT22;333;48.800;9.530;2024-01-10T04:01:54;-4.50;99.60
2260;DHT22;333;48.800;9.530;2024-01-10T04:04:21;-4.40;99.60
2260;DHT22;333;48.800;9.530;2024-01-10T04:06:48;-4.50;99.60
2260;DHT22;333;48.800;9.530;2024-01-10T04:09:17;-4.40;99.60
2260;DHT22;333;48.800;9.530;2024-01-10T04:11:44;-4.40;99.60
2260;DHT22;333;48.800;9.530;2024-01-10T04:14:11;-4.30;99.60
2260;DHT22;333;48.800;9.530;2024-01-10T04:16:38;-4.30;99.60
2260;DHT22;333;48.800;9.530;2024-01-10T04:19:05;-4.40;99.60
2260;DHT22;333;48.800;9.530;2024-01-10T04:21:32;-4.30;99.60
2260;DHT22;333;48.800;9.530;2024-01-10T04:24:00;-4.40;99.60
2260;DHT22;333;48.800;9.530;2024-01-10T04:26:28;-4.30;99.60
2260;DHT22;333;48.800;9.530;2024-01-10T04:28:55;-4.30;99.60
2260;DHT22;333;48.800;9.530;2024-01-10T04:31:22;-4.20;99.60
2260;DHT22;333;48.800;9.530;2024-01-10T04:33:49;-4.20;99.60
2260;DHT22;333;48.800;9.530;2024-01-10T04:36:16;-4.20;99.60
2260;DHT22;333;48.800;9.530;2024-01-10T04:38:43;-4.20;99.60
2260;DHT22;333;48.800;9.530;2024-01-10T04:41:10;-4.00;99.60
2260;DHT22;333;48.800;9.530;2024-01-10T04:43:38;-4.10;99.60
2260;DHT22;333;48.800;9.530;2024-01-10T04:46:05;-4.00;99.60
2260;DHT22;333;48.800;9.530;2024-01-10T04:48:33;-3.90;99.60
2260;DHT22;333;48.800;9.530;2024-01-10T04:51:00;-3.90;99.60
2260;DHT22;333;48.800;9.530;2024-01-10T04:53:27;-3.90;99.60
2260;DHT22;333;48.800;9.530;2024-01-10T04:55:55;-3.80;99.60
2260;DHT22;333;48.800;9.530;2024-01-10T04:58:22;-3.70;99.60
2260;DHT22;333;48.800;9.530;2024-01-10T05:00:50;-3.60;99.60
2260;DHT22;333;48.800;9.530;2024-01-10T05:03:17;-3.70;99.60
2260;DHT22;333;48.800;9.530;2024-01-10T05:05:44;-3.70;99.60
2260;DHT22;333;48.800;9.530;2024-01-10T05:08:11;-3.60;99.60
2260;DHT22;333;48.800;9.530;2024-01-10T05:10:38;-3.60;99.60
2260;DHT22;333;48.800;9.530;2024-01-10T05:13:05;-3.50;99.60
2260;DHT22;333;48.800;9.530;2024-01-10T05:15:32;-3.50;99.60
2260;DHT22;333;48.800;9.530;2024-01-10T05:18:01;-3.50;99.60
2260;DHT22;333;48.800;9.530;2024-01-10T05:20:28;-3.50;99.60
2260;DHT22;333;48.800;9.530;2024-01-10T05:22:55;-3.50;99.60
2260;DHT22;333;48.800;9.530;2024-01-10T05:25:24;-3.60;99.60
2260;DHT22;333;48.800;9.530;2024-01-10T05:27:53;-3.50;99.60
2260;DHT22;333;48.800;9.530;2024-01-10T05:30:20;-3.30;99.60
2260;DHT22;333;48.800;9.530;2024-01-10T05:32:46;-3.30;99.60
2260;DHT22;333;48.800;9.530;2024-01-10T05:35:15;-3.20;99.60
2260;DHT22;333;48.800;9.530;2024-01-10T05:37:42;-3.30;99.60
2260;DHT22;333;48.800;9.530;2024-01-10T05:40:10;-3.30;99.60
2260;DHT22;333;48.800;9.530;2024-01-10T05:42:37;-3.30;99.60
2260;DHT22;333;48.800;9.530;2024-01-10T05:45:05;-3.30;99.60
2260;DHT22;333;48.800;9.530;2024-01-10T05:47:33;-3.30;99.60
2260;DHT22;333;48.800;9.530;2024-01-10T05:50:00;-3.40;99.60
2260;DHT22;333;48.800;9.530;2024-01-10T05:52:30;-3.50;99.60
2260;DHT22;333;48.800;9.530;2024-01-10T05:54:59;-3.40;99.60
2260;DHT22;333;48.800;9.530;2024-01-10T05:57:27;-3.40;99.60
2260;DHT22;333;48.800;9.530;2024-01-10T05:59:55;-3.40;99.60
2260;DHT22;333;48.800;9.530;2024-01-10T06:02:26;-3.40;99.60
2260;DHT22;333;48.800;9.530;2024-01-10T06:04:53;-3.30;99.60
2260;DHT22;333;48.800;9.530;2024-01-10T06:07:20;-3.40;99.60
2260;DHT22;333;48.800;9.530;2024-01-10T06:09:48;-3.30;99.60
2260;DHT22;333;48.800;9.530;2024-01-10T06:12:15;-3.30;99.60
2260;DHT22;333;48.800;9.530;2024-01-10T06:14:43;-3.20;99.60
2260;DHT22;333;48.800;9.530;2024-01-10T06:17:10;-3.30;99.60
2260;DHT22;333;48.800;9.530;2024-01-10T06:19:38;-3.20;99.60
2260;DHT22;333;48.800;9.530;2024-01-10T06:22:05;-3.20;99.60
2260;DHT22;333;48.800;9.530;2024-01-10T06:24:32;-3.10;99.60
2260;DHT22;333;48.800;9.530;2024-01-10T06:27:00;-3.20;99.60
2260;DHT22;333;48.800;9.530;2024-01-10T06:29:27;-3.30;99.60
2260;DHT22;333;48.800;9.530;2024-01-10T06:31:54;-3.30;99.60
2260;DHT22;333;48.800;9.530;2024-01-10T06:34:22;-3.30;99.60
2260;DHT22;333;48.800;9.530;2024-01-10T06:36:49;-3.30;99.60
2260;DHT22;333;48.800;9.530;2024-01-10T06:39:17;-3.40;99.60
2260;DHT22;333;48.800;9.530;2024-01-10T06:41:46;-3.30;99.60
2260;DHT22;333;48.800;9.530;2024-01-10T06:44:15;-3.20;99.60
2260;DHT22;333;48.800;9.530;2024-01-10T06:46:43;-3.30;99.60
2260;DHT22;333;48.800;9.530;2024-01-10T06:49:10;-3.30;99.60
2260;DHT22;333;48.800;9.530;2024-01-10T06:51:37;-3.30;99.60
2260;DHT22;333;48.800;9.530;2024-01-10T06:54:05;-3.30;99.60
2260;DHT22;333;48.800;9.530;2024-01-10T06:56:32;-3.40;99.60
2260;DHT22;333;48.800;9.530;2024-01-10T06:59:00;-3.40;99.60
2260;DHT22;333;48.800;9.530;2024-01-10T07:01:29;-3.40;99.60
2260;DHT22;333;48.800;9.530;2024-01-10T07:03:56;-3.30;99.60
2260;DHT22;333;48.800;9.530;2024-01-10T07:06:23;-3.30;99.60
2260;DHT22;333;48.800;9.530;2024-01-10T07:08:50;-3.30;99.60
2260;DHT22;333;48.800;9.530;2024-01-10T07:11:18;-3.20;99.60
2260;DHT22;333;48.800;9.530;2024-01-10T07:13:45;-3.10;99.60
2260;DHT22;333;48.800;9.530;2024-01-10T07:16:12;-3.10;99.60
2260;DHT22;333;48.800;9.530;2024-01-10T07:18:43;-3.10;99.60
2260;DHT22;333;48.800;9.530;2024-01-10T07:21:12;-3.10;99.60
2260;DHT22;333;48.800;9.530;2024-01-10T07:23:39;-3.20;99.60
2260;DHT22;333;48.800;9.530;2024-01-10T07:26:08;-3.30;99.60
2260;DHT22;333;48.800;9.530;2024-01-10T07:28:35;-3.30;99.60
2260;DHT22;333;48.800;9.530;2024-01-10T07:31:04;-3.30;99.60
2260;DHT22;333;48.800;9.530;2024-01-10T07:33:31;-3.30;99.60
2260;DHT22;333;48.800;9.530;2024-01-10T07:36:00;-3.20;99.60
2260;DHT22;333;48.800;9.530;2024-01-10T07:38:27;-3.10;99.60
2260;DHT22;333;48.800;9.530;2024-01-10T07:40:55;-3.20;99.60
2260;DHT22;333;48.800;9.530;2024-01-10T07:43:22;-3.30;99.60
2260;DHT22;333;48.800;9.530;2024-01-10T07:45:52;-3.30;99.60
2260;DHT22;333;48.800;9.530;2024-01-10T07:48:19;-3.40;99.60
2260;DHT22;333;48.800;9.530;2024-01-10T07:51:11;-3.40;99.60
2260;DHT22;333;48.800;9.530;2024-01-10T07:53:38;-3.50;99.60
2260;DHT22;333;48.800;9.530;2024-01-10T07:56:06;-3.30;99.60
2260;DHT22;333;48.800;9.530;2024-01-10T07:58:33;-3.20;99.60
2260;DHT22;333;48.800;9.530;2024-01-10T08:01:00;-3.20;99.60
2260;DHT22;333;48.800;9.530;2024-01-10T08:03:28;-3.00;99.60
2260;DHT22;333;48.800;9.530;2024-01-10T08:05:55;-3.10;99.60
2260;DHT22;333;48.800;9.530;2024-01-10T08:08:23;-3.00;99.60
2260;DHT22;333;48.800;9.530;2024-01-10T08:10:50;-3.00;99.60
2260;DHT22;333;48.800;9.530;2024-01-10T08:13:17;-2.90;99.60
2260;DHT22;333;48.800;9.530;2024-01-10T08:15:45;-2.90;99.60
2260;DHT22;333;48.800;9.530;2024-01-10T08:18:12;-2.90;99.60
2260;DHT22;333;48.800;9.530;2024-01-10T08:20:39;-3.00;99.60
2260;DHT22;333;48.800;9.530;2024-01-10T08:23:06;-3.00;99.60
2260;DHT22;333;48.800;9.530;2024-01-10T08:25:35;-2.90;99.60
2260;DHT22;333;48.800;9.530;2024-01-10T08:28:02;-2.90;99.60
2260;DHT22;333;48.800;9.530;2024-01-10T08:30:29;-2.70;99.60
2260;DHT22;333;48.800;9.530;2024-01-10T08:32:58;-2.60;99.60
2260;DHT22;333;48.800;9.530;2024-01-10T08:35:25;-2.50;99.60
2260;DHT22;333;48.800;9.530;2024-01-10T08:37:52;-2.40;99.60
2260;DHT22;333;48.800;9.530;2024-01-10T08:40:19;-2.30;99.60
2260;DHT22;333;48.800;9.530;2024-01-10T08:42:52;-2.10;99.60
2260;DHT22;333;48.800;9.530;2024-01-10T08:45:19;-2.10;99.60
2260;DHT22;333;48.800;9.530;2024-01-10T08:47:46;-2.10;99.60
2260;DHT22;333;48.800;9.530;2024-01-10T08:50:13;-2.20;99.60
2260;DHT22;333;48.800;9.530;2024-01-10T08:52:40;-2.10;99.60
2260;DHT22;333;48.800;9.530;2024-01-10T08:55:07;-2.00;99.60
2260;DHT22;333;48.800;9.530;2024-01-10T08:57:35;-2.00;99.60
2260;DHT22;333;48.800;9.530;2024-01-10T09:00:04;-2.00;99.60
2260;DHT22;333;48.800;9.530;2024-01-10T09:02:32;-1.90;99.60
2260;DHT22;333;48.800;9.530;2024-01-10T09:05:02;-1.80;99.60
2260;DHT22;333;48.800;9.530;2024-01-10T09:07:30;-1.80;99.60
2260;DHT22;333;48.800;9.530;2024-01-10T09:09:57;-1.80;99.60
2260;DHT22;333;48.800;9.530;2024-01-10T09:12:24;-1.80;99.60
2260;DHT22;333;48.800;9.530;2024-01-10T09:14:51;-1.90;99.60
2260;DHT22;333;48.800;9.530;2024-01-10T09:17:19;-1.80;99.60
2260;DHT22;333;48.800;9.530;2024-01-10T09:19:46;-1.80;99.60
2260;DHT22;333;48.800;9.530;2024-01-10T09:22:13;-1.80;99.60
2260;DHT22;333;48.800;9.530;2024-01-10T09:24:40;-2.00;99.60
2260;DHT22;333;48.800;9.530;2024-01-10T09:27:08;-2.00;99.60
2260;DHT22;333;48.800;9.530;2024-01-10T09:29:35;-1.90;99.60
2260;DHT22;333;48.800;9.530;2024-01-10T09:32:02;-1.80;99.60
2260;DHT22;333;48.800;9.530;2024-01-10T09:34:31;-1.80;99.60
2260;DHT22;333;48.800;9.530;2024-01-10T09:36:58;-1.70;99.60
2260;DHT22;333;48.800;9.530;2024-01-10T09:39:27;-1.60;99.60
2260;DHT22;333;48.800;9.530;2024-01-10T09:41:54;-1.70;99.60
2260;DHT22;333;48.800;9.530;2024-01-10T09:44:23;-1.80;99.60
2260;DHT22;333;48.800;9.530;2024-01-10T09:46:52;-1.70;99.60
2260;DHT22;333;48.800;9.530;2024-01-10T09:49:19;-1.80;99.60
2260;DHT22;333;48.800;9.530;2024-01-10T09:51:49;-1.70;99.60
2260;DHT22;333;48.800;9.530;2024-01-10T09:54:16;-1.70;99.60
2260;DHT22;333;48.800;9.530;2024-01-10T09:56:45;-1.70;99.60
2260;DHT22;333;48.800;9.530;2024-01-10T09:59:13;-1.60;99.60
2260;DHT22;333;48.800;9.530;2024-01-10T10:01:40;-1.60;99.60
2260;DHT22;333;48.800;9.530;2024-01-10T10:04:12;-1.50;99.60
2260;DHT22;333;48.800;9.530;2024-01-10T10:06:39;-1.40;99.60
2260;DHT22;333;48.800;9.530;2024-01-10T10:09:09;-1.30;99.60
2260;DHT22;333;48.800;9.530;2024-01-10T10:11:37;-1.30;99.60
2260;DHT22;333;48.800;9.530;2024-01-10T10:14:17;-1.30;99.60
2260;DHT22;333;48.800;9.530;2024-01-10T10:16:45;-1.20;99.60
2260;DHT22;333;48.800;9.530;2024-01-10T10:19:12;-1.30;99.60
2260;DHT22;333;48.800;9.530;2024-01-10T10:21:39;-1.20;99.60
2260;DHT22;333;48.800;9.530;2024-01-10T10:24:09;-1.10;99.60
2260;DHT22;333;48.800;9.530;2024-01-10T10:26:38;-0.90;99.60
2260;DHT22;333;48.800;9.530;2024-01-10T10:29:07;-0.60;99.60
2260;DHT22;333;48.800;9.530;2024-01-10T10:31:35;-0.40;99.60
2260;DHT22;333;48.800;9.530;2024-01-10T10:34:02;-0.40;99.60
2260;DHT22;333;48.800;9.530;2024-01-10T10:36:30;0.00;99.60
2260;DHT22;333;48.800;9.530;2024-01-10T10:38:59;0.00;99.60
2260;DHT22;333;48.800;9.530;2024-01-10T10:41:31;0.20;99.60
2260;DHT22;333;48.800;9.530;2024-01-10T10:43:59;0.40;99.60
2260;DHT22;333;48.800;9.530;2024-01-10T10:46:27;0.40;99.60
2260;DHT22;333;48.800;9.530;2024-01-10T10:48:59;0.30;99.60
2260;DHT22;333;48.800;9.530;2024-01-10T10:51:33;0.50;99.60
2260;DHT22;333;48.800;9.530;2024-01-10T10:53:59;0.30;99.60
2260;DHT22;333;48.800;9.530;2024-01-10T10:56:32;0.60;99.60
2260;DHT22;333;48.800;9.530;2024-01-10T10:59:00;0.60;99.60
2260;DHT22;333;48.800;9.530;2024-01-10T11:01:28;0.90;99.60
2260;DHT22;333;48.800;9.530;2024-01-10T11:03:55;1.00;99.60
2260;DHT22;333;48.800;9.530;2024-01-10T11:06:23;0.60;99.60
2260;DHT22;333;48.800;9.530;2024-01-10T11:08:52;0.50;99.60
2260;DHT22;333;48.800;9.530;2024-01-10T11:11:31;0.50;99.60
2260;DHT22;333;48.800;9.530;2024-01-10T11:14:14;0.50;99.60
2260;DHT22;333;48.800;9.530;2024-01-10T11:17:00;0.30;99.60
2260;DHT22;333;48.800;9.530;2024-01-10T11:19:56;0.70;99.60
2260;DHT22;333;48.800;9.530;2024-01-10T11:22:52;0.90;99.60
2260;DHT22;333;48.800;9.530;2024-01-10T11:25:20;1.10;99.60
2260;DHT22;333;48.800;9.530;2024-01-10T11:27:53;0.70;99.60
2260;DHT22;333;48.800;9.530;2024-01-10T11:30:32;0.90;99.60
2260;DHT22;333;48.800;9.530;2024-01-10T11:33:01;1.10;99.60
2260;DHT22;333;48.800;9.530;2024-01-10T11:35:29;1.70;99.60
2260;DHT22;333;48.800;9.530;2024-01-10T11:37:59;1.80;99.60
2260;DHT22;333;48.800;9.530;2024-01-10T11:40:47;1.10;99.60
2260;DHT22;333;48.800;9.530;2024-01-10T11:43:18;1.00;99.60
2260;DHT22;333;48.800;9.530;2024-01-10T11:45:52;1.20;99.60
2260;DHT22;333;48.800;9.530;2024-01-10T11:48:27;1.70;99.60
2260;DHT22;333;48.800;9.530;2024-01-10T11:50:56;2.10;99.60
2260;DHT22;333;48.800;9.530;2024-01-10T11:53:41;2.00;99.60
2260;DHT22;333;48.800;9.530;2024-01-10T11:56:12;1.90;99.60
2260;DHT22;333;48.800;9.530;2024-01-10T11:59:02;2.10;99.60
2260;DHT22;333;48.800;9.530;2024-01-10T12:01:30;2.20;99.60
2260;DHT22;333;48.800;9.530;2024-01-10T12:03:58;2.00;99.60
2260;DHT22;333;48.800;9.530;2024-01-10T12:06:26;1.80;99.60
2260;DHT22;333;48.800;9.530;2024-01-10T12:08:53;2.10;99.60
2260;DHT22;333;48.800;9.530;2024-01-10T12:11:21;2.40;99.60
2260;DHT22;333;48.800;9.530;2024-01-10T12:13:48;2.20;99.60
2260;DHT22;333;48.800;9.530;2024-01-10T12:16:16;2.20;99.60
2260;DHT22;333;48.800;9.530;2024-01-10T12:18:44;2.50;99.60
2260;DHT22;333;48.800;9.530;2024-01-10T12:21:11;2.30;99.60
2260;DHT22;333;48.800;9.530;2024-01-10T12:23:39;2.40;99.60
2260;DHT22;333;48.800;9.530;2024-01-10T12:26:09;2.00;99.60
2260;DHT22;333;48.800;9.530;2024-01-10T12:28:38;1.70;99.60
2260;DHT22;333;48.800;9.530;2024-01-10T12:31:06;1.50;99.60
2260;DHT22;333;48.800;9.530;2024-01-10T12:33:36;1.40;99.60
2260;DHT22;333;48.800;9.530;2024-01-10T12:36:07;1.20;99.60
2260;DHT22;333;48.800;9.530;2024-01-10T12:38:35;1.20;99.60
2260;DHT22;333;48.800;9.530;2024-01-10T12:41:04;1.20;99.60
2260;DHT22;333;48.800;9.530;2024-01-10T12:43:31;1.30;99.60
2260;DHT22;333;48.800;9.530;2024-01-10T12:46:08;1.30;99.60
2260;DHT22;333;48.800;9.530;2024-01-10T12:48:38;1.20;99.60
2260;DHT22;333;48.800;9.530;2024-01-10T12:51:07;1.40;99.60
2260;DHT22;333;48.800;9.530;2024-01-10T12:53:35;1.20;99.60
2260;DHT22;333;48.800;9.530;2024-01-10T12:56:04;1.30;99.60
2260;DHT22;333;48.800;9.530;2024-01-10T12:58:32;1.30;99.60
2260;DHT22;333;48.800;9.530;2024-01-10T13:01:01;1.30;99.60
2260;DHT22;333;48.800;9.530;2024-01-10T13:03:29;1.20;99.60
2260;DHT22;333;48.800;9.530;2024-01-10T13:05:59;1.30;99.60
2260;DHT22;333;48.800;9.530;2024-01-10T13:08:27;1.20;99.60
2260;DHT22;333;48.800;9.530;2024-01-10T13:10:54;1.20;99.60
2260;DHT22;333;48.800;9.530;2024-01-10T13:13:21;1.30;99.60
2260;DHT22;333;48.800;9.530;2024-01-10T13:15:48;1.40;99.60
2260;DHT22;333;48.800;9.530;2024-01-10T13:18:15;1.40;99.60
2260;DHT22;333;48.800;9.530;2024-01-10T13:20:43;1.40;99.60
2260;DHT22;333;48.800;9.530;2024-01-10T13:23:13;1.50;99.60
2260;DHT22;333;48.800;9.530;2024-01-10T13:25:41;1.40;99.60
2260;DHT22;333;48.800;9.530;2024-01-10T13:28:08;1.40;99.60
2260;DHT22;333;48.800;9.530;2024-01-10T13:30:37;1.40;99.60
2260;DHT22;333;48.800;9.530;2024-01-10T13:33:06;1.50;99.60
2260;DHT22;333;48.800;9.530;2024-01-10T13:35:34;1.40;99.60
2260;DHT22;333;48.800;9.530;2024-01-10T13:38:02;1.30;99.60
2260;DHT22;333;48.800;9.530;2024-01-10T13:40:33;1.50;99.60
2260;DHT22;333;48.800;9.530;2024-01-10T13:43:01;1.50;99.60
2260;DHT22;333;48.800;9.530;2024-01-10T13:45:28;1.50;99.60
2260;DHT22;333;48.800;9.530;2024-01-10T13:47:56;1.50;99.60
2260;DHT22;333;48.800;9.530;2024-01-10T13:50:23;1.60;99.60
2260;DHT22;333;48.800;9.530;2024-01-10T13:52:51;1.80;99.60
2260;DHT22;333;48.800;9.530;2024-01-10T13:55:19;2.10;99.60
2260;DHT22;333;48.800;9.530;2024-01-10T13:57:50;2.20;99.60
2260;DHT22;333;48.800;9.530;2024-01-10T14:00:19;2.20;99.60
2260;DHT22;333;48.800;9.530;2024-01-10T14:02:46;2.30;99.60
2260;DHT22;333;48.800;9.530;2024-01-10T14:05:17;2.10;99.60
2260;DHT22;333;48.800;9.530;2024-01-10T14:07:44;1.90;99.60
2260;DHT22;333;48.800;9.530;2024-01-10T14:10:12;1.70;99.60
2260;DHT22;333;48.800;9.530;2024-01-10T14:12:39;1.70;99.60
2260;DHT22;333;48.800;9.530;2024-01-10T14:15:08;1.70;99.60
2260;DHT22;333;48.800;9.530;2024-01-10T14:17:35;1.80;99.60
2260;DHT22;333;48.800;9.530;2024-01-10T14:20:03;1.70;99.60
2260;DHT22;333;48.800;9.530;2024-01-10T14:22:34;1.70;99.60
2260;DHT22;333;48.800;9.530;2024-01-10T14:25:01;1.70;99.60
2260;DHT22;333;48.800;9.530;2024-01-10T14:27:28;1.70;99.60
2260;DHT22;333;48.800;9.530;2024-01-10T14:29:55;1.70;99.60
2260;DHT22;333;48.800;9.530;2024-01-10T14:32:24;1.60;99.60
2260;DHT22;333;48.800;9.530;2024-01-10T14:34:51;1.50;99.60
2260;DHT22;333;48.800;9.530;2024-01-10T14:37:18;1.50;99.60
2260;DHT22;333;48.800;9.530;2024-01-10T14:39:46;1.40;99.60
2260;DHT22;333;48.800;9.530;2024-01-10T14:42:14;1.30;99.60
2260;DHT22;333;48.800;9.530;2024-01-10T14:44:43;1.40;99.60
2260;DHT22;333;48.800;9.530;2024-01-10T14:47:11;1.30;99.60
2260;DHT22;333;48.800;9.530;2024-01-10T14:49:39;1.40;99.60
2260;DHT22;333;48.800;9.530;2024-01-10T14:52:07;1.40;99.60
2260;DHT22;333;48.800;9.530;2024-01-10T14:54:34;1.30;99.60
2260;DHT22;333;48.800;9.530;2024-01-10T14:57:00;1.20;99.60
2260;DHT22;333;48.800;9.530;2024-01-10T14:59:28;1.10;99.60
2260;DHT22;333;48.800;9.530;2024-01-10T15:01:56;1.00;99.60
2260;DHT22;333;48.800;9.530;2024-01-10T15:04:28;0.90;99.60
2260;DHT22;333;48.800;9.530;2024-01-10T15:06:57;0.80;99.60
2260;DHT22;333;48.800;9.530;2024-01-10T15:09:27;0.60;99.60
2260;DHT22;333;48.800;9.530;2024-01-10T15:11:54;0.50;99.60
2260;DHT22;333;48.800;9.530;2024-01-10T15:14:21;0.50;99.60
2260;DHT22;333;48.800;9.530;2024-01-10T15:16:48;0.30;99.60
2260;DHT22;333;48.800;9.530;2024-01-10T15:19:15;0.30;99.60
2260;DHT22;333;48.800;9.530;2024-01-10T15:21:44;0.20;99.60
2260;DHT22;333;48.800;9.530;2024-01-10T15:24:13;0.20;99.60
2260;DHT22;333;48.800;9.530;2024-01-10T15:26:40;0.10;99.60
2260;DHT22;333;48.800;9.530;2024-01-10T15:29:07;0.00;99.60
2260;DHT22;333;48.800;9.530;2024-01-10T15:31:34;-0.10;99.60
2260;DHT22;333;48.800;9.530;2024-01-10T15:34:02;-0.10;99.60
2260;DHT22;333;48.800;9.530;2024-01-10T15:36:29;-0.20;99.60
2260;DHT22;333;48.800;9.530;2024-01-10T15:38:56;-0.20;99.60
2260;DHT22;333;48.800;9.530;2024-01-10T15:41:24;-0.40;99.60
2260;DHT22;333;48.800;9.530;2024-01-10T15:43:51;-0.40;99.60
2260;DHT22;333;48.800;9.530;2024-01-10T15:46:19;-0.50;99.60
2260;DHT22;333;48.800;9.530;2024-01-10T15:48:47;-0.60;99.60
2260;DHT22;333;48.800;9.530;2024-01-10T15:51:14;-0.70;99.60
2260;DHT22;333;48.800;9.530;2024-01-10T15:53:41;-0.80;99.60
2260;DHT22;333;48.800;9.530;2024-01-10T15:56:10;-0.90;99.60
2260;DHT22;333;48.800;9.530;2024-01-10T15:58:38;-0.90;99.60
2260;DHT22;333;48.800;9.530;2024-01-10T16:01:05;-0.90;99.60
2260;DHT22;333;48.800;9.530;2024-01-10T16:03:32;-1.00;99.60
2260;DHT22;333;48.800;9.530;2024-01-10T16:06:01;-1.10;99.60
2260;DHT22;333;48.800;9.530;2024-01-10T16:08:28;-1.10;99.60
2260;DHT22;333;48.800;9.530;2024-01-10T16:10:55;-1.10;99.60
2260;DHT22;333;48.800;9.530;2024-01-10T16:13:23;-1.20;99.60
2260;DHT22;333;48.800;9.530;2024-01-10T16:15:54;-1.30;99.60
2260;DHT22;333;48.800;9.530;2024-01-10T16:18:22;-1.30;99.60
2260;DHT22;333;48.800;9.530;2024-01-10T16:20:49;-1.30;99.60
2260;DHT22;333;48.800;9.530;2024-01-10T16:23:17;-1.40;99.60
2260;DHT22;333;48.800;9.530;2024-01-10T16:25:44;-1.50;99.60
2260;DHT22;333;48.800;9.530;2024-01-10T16:28:11;-1.50;99.60